createdAt,value
2023-01-27T00:01:10.840Z,32.43
2023-01-27T00:03:38.441Z,22.33
2023-01-27T00:06:12.287Z,19.73
2023-01-27T00:08:40.216Z,17.80
2023-01-27T00:11:28.953Z,15.20
2023-01-27T00:13:56.827Z,16.40
2023-01-27T00:16:24.329Z,14.90
2023-01-27T00:18:51.882Z,13.87
2023-01-27T00:21:38.007Z,13.43
2023-01-27T00:24:24.239Z,9.63
2023-01-27T00:26:51.871Z,11.23
2023-01-27T00:29:19.372Z,14.53
2023-01-27T00:32:05.422Z,16.60
2023-01-27T00:34:33.965Z,16.63
2023-01-27T00:37:04.468Z,19.00
2023-01-27T00:39:33.888Z,21.00
2023-01-27T00:42:02.125Z,18.77
2023-01-27T00:44:29.723Z,21.60
2023-01-27T00:46:57.524Z,22.90
2023-01-27T00:49:25.255Z,20.87
2023-01-27T00:51:52.737Z,25.97
2023-01-27T00:54:20.498Z,19.90
2023-01-27T00:56:48.753Z,22.13
2023-01-27T00:59:16.369Z,19.10
2023-01-27T01:01:43.896Z,21.33
2023-01-27T01:04:12.877Z,20.20
2023-01-27T01:06:40.369Z,21.83
2023-01-27T01:09:07.960Z,18.73
2023-01-27T01:11:35.545Z,22.07
2023-01-27T01:14:03.220Z,19.03
2023-01-27T01:16:30.909Z,20.43
2023-01-27T01:18:59.157Z,15.10
2023-01-27T01:21:26.706Z,16.93
2023-01-27T01:23:54.347Z,20.73
2023-01-27T01:26:22.492Z,18.00
2023-01-27T01:28:50.406Z,13.13
2023-01-27T01:31:20.874Z,14.70
2023-01-27T01:33:49.707Z,12.30
2023-01-27T01:36:21.467Z,11.97
2023-01-27T01:38:49.397Z,12.83
2023-01-27T01:41:20.170Z,13.73
2023-01-27T01:43:49.907Z,17.00
2023-01-27T01:46:18.974Z,12.13
2023-01-27T01:48:58.691Z,13.47
2023-01-27T01:51:32.875Z,16.30
2023-01-27T01:54:16.886Z,16.57
2023-01-27T01:57:00.987Z,17.57
2023-01-27T01:59:39.370Z,15.33
2023-01-27T02:02:13.353Z,14.83
2023-01-27T02:04:55.487Z,14.47
2023-01-27T02:07:51.915Z,16.40
2023-01-27T02:10:19.537Z,14.90
2023-01-27T02:12:47.457Z,14.60
2023-01-27T02:15:15.589Z,14.77
2023-01-27T02:17:43.652Z,14.10
2023-01-27T02:20:52.130Z,14.77
2023-01-27T02:23:40.738Z,21.57
2023-01-27T02:26:09.903Z,21.40
2023-01-27T02:28:37.526Z,21.17
2023-01-27T02:31:05.463Z,18.80
2023-01-27T02:33:34.923Z,21.20
2023-01-27T02:36:09.928Z,14.17
2023-01-27T02:38:48.728Z,10.60
2023-01-27T02:41:28.131Z,11.60
2023-01-27T02:43:56.700Z,15.47
2023-01-27T02:46:24.686Z,13.87
2023-01-27T02:48:52.480Z,15.43
2023-01-27T02:51:20.124Z,12.20
2023-01-27T02:53:48.158Z,12.63
2023-01-27T02:56:15.673Z,12.17
2023-01-27T02:58:47.124Z,10.80
2023-01-27T03:01:25.647Z,10.50
2023-01-27T03:03:53.447Z,14.47
2023-01-27T03:06:21.343Z,12.23
2023-01-27T03:08:49.418Z,14.40
2023-01-27T03:11:37.808Z,14.10
2023-01-27T03:14:06.934Z,14.67
2023-01-27T03:16:53.034Z,14.23
2023-01-27T03:19:21.032Z,18.33
2023-01-27T03:21:52.919Z,14.43
2023-01-27T03:24:22.337Z,17.20
2023-01-27T03:26:50.381Z,17.13
2023-01-27T03:29:39.052Z,14.50
2023-01-27T03:32:07.028Z,15.03
2023-01-27T03:34:35.014Z,19.07
2023-01-27T03:37:29.094Z,18.70
2023-01-27T03:40:15.592Z,13.63
2023-01-27T03:43:01.799Z,17.00
2023-01-27T03:45:47.916Z,10.97
2023-01-27T03:48:18.510Z,13.20
2023-01-27T03:50:53.100Z,13.23
2023-01-27T03:53:21.557Z,17.70
2023-01-27T03:55:49.250Z,15.47
2023-01-27T03:58:23.887Z,16.37
2023-01-27T04:00:55.301Z,12.50
2023-01-27T04:03:45.548Z,10.37
2023-01-27T04:06:39.385Z,7.23
2023-01-27T04:09:09.119Z,12.97
2023-01-27T04:11:55.336Z,12.60
2023-01-27T04:14:42.198Z,15.17
2023-01-27T04:17:18.979Z,12.93
2023-01-27T04:19:48.036Z,12.93
2023-01-27T04:22:16.908Z,10.40
2023-01-27T04:24:44.918Z,22.37
2023-01-27T04:27:15.735Z,32.17
2023-01-27T04:29:43.714Z,26.87
2023-01-27T04:32:14.079Z,26.43
2023-01-27T04:34:42.380Z,18.77
2023-01-27T04:37:11.447Z,13.60
2023-01-27T04:39:39.212Z,12.10
2023-01-27T04:42:06.769Z,12.43
2023-01-27T04:44:34.272Z,12.00
2023-01-27T04:47:02.256Z,12.67
2023-01-27T04:49:29.813Z,11.33
2023-01-27T04:51:57.472Z,12.63
2023-01-27T04:54:25.043Z,14.80
2023-01-27T04:57:03.531Z,14.83
2023-01-27T04:59:34.157Z,15.93
2023-01-27T05:02:01.965Z,16.03
2023-01-27T05:04:29.508Z,18.93
2023-01-27T05:06:57.116Z,24.53
2023-01-27T05:09:24.908Z,35.33
2023-01-27T05:11:52.603Z,29.60
2023-01-27T05:14:20.376Z,23.50
2023-01-27T05:16:48.053Z,20.90
2023-01-27T05:19:15.590Z,18.83
2023-01-27T05:21:43.518Z,18.37
2023-01-27T05:24:11.917Z,21.70
2023-01-27T05:26:39.692Z,20.10
2023-01-27T05:29:07.324Z,24.30
2023-01-27T05:31:35.021Z,19.90
2023-01-27T05:34:03.594Z,23.40
2023-01-27T05:36:32.005Z,28.87
2023-01-27T05:39:00.375Z,28.97
2023-01-27T05:41:34.935Z,33.00
2023-01-27T05:44:02.783Z,22.37
2023-01-27T05:46:32.255Z,26.73
2023-01-27T05:49:05.219Z,24.00
2023-01-27T05:51:37.872Z,29.20
2023-01-27T05:54:05.958Z,33.60
2023-01-27T05:56:33.975Z,27.43
2023-01-27T05:59:02.057Z,21.47
2023-01-27T06:01:32.709Z,26.03
2023-01-27T06:04:01.286Z,23.60
2023-01-27T06:06:31.249Z,25.57
2023-01-27T06:08:59.445Z,27.90
2023-01-27T06:11:27.330Z,21.73
2023-01-27T06:13:56.499Z,31.03
2023-01-27T06:16:24.621Z,19.83
2023-01-27T06:18:52.788Z,22.80
2023-01-27T06:21:20.949Z,23.30
2023-01-27T06:23:49.542Z,18.70
2023-01-27T06:26:19.981Z,18.97
2023-01-27T06:28:48.134Z,19.17
2023-01-27T06:31:21.681Z,16.50
2023-01-27T06:33:50.772Z,18.23
2023-01-27T06:36:22.051Z,18.30
2023-01-27T06:38:50.495Z,23.37
2023-01-27T06:41:18.420Z,18.60
2023-01-27T06:43:46.075Z,18.10
2023-01-27T06:46:15.080Z,15.17
2023-01-27T06:48:44.167Z,38.60
2023-01-27T06:51:12.027Z,47.97
2023-01-27T06:53:39.679Z,76.57
2023-01-27T06:56:07.903Z,51.20
2023-01-27T06:58:35.549Z,47.37
2023-01-27T07:01:06.994Z,50.03
2023-01-27T07:03:37.595Z,35.20
2023-01-27T07:06:06.158Z,37.27
2023-01-27T07:08:33.707Z,28.93
2023-01-27T07:11:05.595Z,27.23
2023-01-27T07:13:33.449Z,24.27
2023-01-27T07:16:01.705Z,20.53
2023-01-27T07:18:29.592Z,18.10
2023-01-27T07:20:57.145Z,22.70
2023-01-27T07:23:24.684Z,34.70
2023-01-27T07:25:52.157Z,36.13
2023-01-27T07:28:19.644Z,66.80
2023-01-27T07:30:47.497Z,121.07
2023-01-27T07:33:15.811Z,26.17
2023-01-27T07:35:43.747Z,20.50
2023-01-27T07:38:11.750Z,17.37
2023-01-27T07:40:39.308Z,40.43
2023-01-27T07:43:06.881Z,57.80
2023-01-27T07:45:35.721Z,36.07
2023-01-27T07:48:08.954Z,14.30
2023-01-27T07:50:39.212Z,11.60
2023-01-27T07:53:07.082Z,11.43
2023-01-27T07:55:34.990Z,12.80
2023-01-27T07:58:03.419Z,15.33
2023-01-27T08:00:31.846Z,18.07
2023-01-27T08:03:01.051Z,38.17
2023-01-27T08:05:32.333Z,20.07
2023-01-27T08:08:03.717Z,21.37
2023-01-27T08:10:32.096Z,23.33
2023-01-27T08:12:59.680Z,21.70
2023-01-27T08:15:27.295Z,19.10
2023-01-27T08:17:57.486Z,21.27
2023-01-27T08:20:27.542Z,15.90
2023-01-27T08:22:56.648Z,26.50
2023-01-27T08:25:24.986Z,37.70
2023-01-27T08:27:54.298Z,22.90
2023-01-27T08:30:22.948Z,26.80
2023-01-27T08:32:51.628Z,20.60
2023-01-27T08:35:19.414Z,27.80
2023-01-27T08:37:48.914Z,22.00
2023-01-27T08:40:17.827Z,15.77
2023-01-27T08:42:45.449Z,15.60
2023-01-27T08:45:13.285Z,16.47
2023-01-27T08:47:40.884Z,19.73
2023-01-27T08:50:11.128Z,28.53
2023-01-27T08:52:39.341Z,29.23
2023-01-27T08:55:11.138Z,24.27
2023-01-27T08:57:42.651Z,26.30
2023-01-27T09:00:13.561Z,27.00
2023-01-27T09:02:42.356Z,40.17
2023-01-27T09:05:09.982Z,45.80
2023-01-27T09:07:38.573Z,32.07
2023-01-27T09:10:20.038Z,34.70
2023-01-27T09:12:48.230Z,22.63
2023-01-27T09:15:16.289Z,27.67
2023-01-27T09:17:44.119Z,19.53
2023-01-27T09:20:13.291Z,15.30
2023-01-27T09:22:42.318Z,11.67
2023-01-27T09:25:16.103Z,19.43
2023-01-27T09:27:44.725Z,19.50
2023-01-27T09:30:17.022Z,15.43
2023-01-27T09:32:44.696Z,22.90
2023-01-27T09:35:12.799Z,16.13
2023-01-27T09:37:52.689Z,20.57
2023-01-27T09:40:39.651Z,32.77
2023-01-27T09:43:40.306Z,17.90
2023-01-27T09:46:40.801Z,29.20
2023-01-27T09:49:38.752Z,17.63
2023-01-27T09:52:47.561Z,14.80
2023-01-27T09:55:41.082Z,21.80
2023-01-27T09:58:29.634Z,44.37
2023-01-27T10:01:14.260Z,47.37
2023-01-27T10:04:25.883Z,56.87
2023-01-27T10:07:24.446Z,67.30
2023-01-27T10:10:17.860Z,39.60
2023-01-27T10:13:15.594Z,30.30
2023-01-27T10:16:26.612Z,17.07
2023-01-27T10:19:06.243Z,19.43
2023-01-27T10:22:24.981Z,17.87
2023-01-27T10:25:29.504Z,13.93
2023-01-27T10:28:05.325Z,16.03
2023-01-27T10:30:57.121Z,29.80
2023-01-27T10:34:01.820Z,29.53
2023-01-27T10:36:46.166Z,22.60
2023-01-27T10:39:25.356Z,27.93
2023-01-27T10:42:06.516Z,32.30
2023-01-27T10:45:02.412Z,21.40
2023-01-27T10:47:54.495Z,26.60
2023-01-27T10:50:31.205Z,24.87
2023-01-27T10:53:16.953Z,21.20
2023-01-27T10:56:16.772Z,18.57
2023-01-27T10:59:20.108Z,16.60
2023-01-27T11:02:24.960Z,20.20
2023-01-27T11:05:03.973Z,18.23
2023-01-27T11:07:45.030Z,27.70
2023-01-27T11:10:20.448Z,27.27
2023-01-27T11:12:55.121Z,34.20
2023-01-27T11:15:35.468Z,42.00
2023-01-27T11:18:34.505Z,27.67
2023-01-27T11:21:07.487Z,25.93
2023-01-27T11:23:49.031Z,15.93
2023-01-27T11:26:59.808Z,19.53
2023-01-27T11:29:43.972Z,17.13
2023-01-27T11:32:31.458Z,12.47
2023-01-27T11:35:08.359Z,21.43
2023-01-27T11:37:58.214Z,25.73
2023-01-27T11:40:38.515Z,12.57
2023-01-27T11:43:06.627Z,22.70
2023-01-27T11:45:38.232Z,29.23
2023-01-27T11:48:17.294Z,23.87
2023-01-27T11:50:46.616Z,20.67
2023-01-27T11:53:36.963Z,16.73
2023-01-27T11:56:18.783Z,16.73
2023-01-27T11:59:02.057Z,14.37
2023-01-27T12:01:51.276Z,23.93
2023-01-27T12:04:52.504Z,20.07
2023-01-27T12:08:01.528Z,14.17
2023-01-27T12:10:39.268Z,8.87
2023-01-27T12:13:18.743Z,9.87
2023-01-27T12:16:01.794Z,15.00
2023-01-27T12:18:35.090Z,13.57
2023-01-27T12:21:10.152Z,11.57
2023-01-27T12:23:49.160Z,13.03
2023-01-27T12:26:39.419Z,21.77
2023-01-27T12:29:19.553Z,21.10
2023-01-27T12:31:51.251Z,19.67
2023-01-27T12:34:46.433Z,19.53
2023-01-27T12:37:34.127Z,16.70
2023-01-27T12:40:16.345Z,21.50
2023-01-27T12:42:53.169Z,26.47
2023-01-27T12:45:41.905Z,28.13
2023-01-27T12:48:18.870Z,26.80
2023-01-27T12:50:52.712Z,22.20
2023-01-27T12:53:28.366Z,29.43
2023-01-27T12:56:12.132Z,33.77
2023-01-27T12:58:57.975Z,33.13
2023-01-27T13:01:35.582Z,27.20
2023-01-27T13:04:26.977Z,31.03
2023-01-27T13:07:07.363Z,29.97
2023-01-27T13:09:50.918Z,17.57
2023-01-27T13:12:28.101Z,28.37
2023-01-27T13:15:15.719Z,28.13
2023-01-27T13:17:52.111Z,33.13
2023-01-27T13:20:29.949Z,26.00
2023-01-27T13:23:04.028Z,26.40
2023-01-27T13:25:44.827Z,33.10
2023-01-27T13:28:52.811Z,23.07
2023-01-27T13:31:36.894Z,25.17
2023-01-27T13:34:40.291Z,28.73
2023-01-27T13:37:17.063Z,31.03
2023-01-27T13:40:29.996Z,9.63
2023-01-27T13:43:14.682Z,12.90
2023-01-27T13:45:48.731Z,10.53
2023-01-27T13:48:39.491Z,18.97
2023-01-27T13:51:16.512Z,27.80
2023-01-27T13:53:47.715Z,18.73
2023-01-27T13:56:18.174Z,13.33
2023-01-27T13:59:00.225Z,14.03
2023-01-27T14:02:01.825Z,7.73
2023-01-27T14:04:59.717Z,9.60
2023-01-27T14:07:48.841Z,8.07
2023-01-27T14:10:37.018Z,17.30
2023-01-27T14:13:18.974Z,12.97
2023-01-27T14:16:27.392Z,12.43
2023-01-27T14:19:14.439Z,31.70
2023-01-27T14:21:56.264Z,77.13
2023-01-27T14:24:58.755Z,28.57
2023-01-27T14:27:38.507Z,22.20
2023-01-27T14:30:42.234Z,26.97
2023-01-27T14:33:24.551Z,25.43
2023-01-27T14:36:27.493Z,24.70
2023-01-27T14:39:38.918Z,12.63
2023-01-27T14:42:39.961Z,14.90
2023-01-27T14:45:34.555Z,27.63
2023-01-27T14:48:14.691Z,23.43
2023-01-27T14:51:05.516Z,16.63
2023-01-27T14:54:17.251Z,10.73
2023-01-27T14:57:09.317Z,12.33
2023-01-27T14:59:43.883Z,11.23
2023-01-27T15:02:16.905Z,12.47
2023-01-27T15:05:11.365Z,17.27
2023-01-27T15:08:10.547Z,16.77
2023-01-27T15:10:53.217Z,15.80
2023-01-27T15:14:07.569Z,23.40
2023-01-27T15:17:53.139Z,17.23
2023-01-27T15:20:37.032Z,15.73
2023-01-27T15:23:36.893Z,13.87
2023-01-27T15:26:09.029Z,12.30
2023-01-27T15:28:41.907Z,13.17
2023-01-27T15:31:29.258Z,11.57
2023-01-27T15:34:21.342Z,10.70
2023-01-27T15:37:33.408Z,22.27
2023-01-27T15:40:17.085Z,13.93
2023-01-27T15:42:51.413Z,10.33
2023-01-27T15:45:42.635Z,14.10
2023-01-27T15:48:23.600Z,19.03
2023-01-27T15:51:01.462Z,17.13
2023-01-27T15:53:52.678Z,13.37
2023-01-27T15:56:20.905Z,12.13
2023-01-27T15:59:05.153Z,13.63
2023-01-27T16:01:37.114Z,12.07
2023-01-27T16:04:23.371Z,12.93
2023-01-27T16:07:03.548Z,12.70
2023-01-27T16:09:45.653Z,14.63
2023-01-27T16:12:32.301Z,18.53
2023-01-27T16:15:21.931Z,15.67
2023-01-27T16:18:08.368Z,13.83
2023-01-27T16:21:06.970Z,22.00
2023-01-27T16:23:53.193Z,16.53
2023-01-27T16:26:42.610Z,14.53
2023-01-27T16:29:32.938Z,14.07
2023-01-27T16:32:23.423Z,12.87
2023-01-27T16:35:05.869Z,14.10
2023-01-27T16:37:39.721Z,15.47
2023-01-27T16:40:22.701Z,16.70
2023-01-27T16:42:53.221Z,15.50
2023-01-27T16:45:39.316Z,14.20
2023-01-27T16:48:30.272Z,12.80
2023-01-27T16:51:26.189Z,13.97
2023-01-27T16:54:01.142Z,8.63
2023-01-27T16:56:40.230Z,14.13
2023-01-27T16:59:33.890Z,13.73
2023-01-27T17:02:36.184Z,15.50
2023-01-27T17:05:16.606Z,13.63
2023-01-27T17:08:23.799Z,15.57
2023-01-27T17:11:35.927Z,14.13
2023-01-27T17:14:28.439Z,20.27
2023-01-27T17:17:03.314Z,16.03
2023-01-27T17:19:38.271Z,17.63
2023-01-27T17:22:22.712Z,21.77
2023-01-27T17:24:57.090Z,17.97
2023-01-27T17:27:38.829Z,21.90
2023-01-27T17:30:23.218Z,17.20
2023-01-27T17:33:04.964Z,18.03
2023-01-27T17:35:42.130Z,16.57
2023-01-27T17:38:49.159Z,19.33
2023-01-27T17:41:33.179Z,17.20
2023-01-27T17:44:02.505Z,17.83
2023-01-27T17:46:35.305Z,18.23
2023-01-27T17:49:10.740Z,17.00
2023-01-27T17:51:53.654Z,20.57
2023-01-27T17:54:34.219Z,27.30
2023-01-27T17:57:33.125Z,34.27
2023-01-27T18:00:13.138Z,44.40
2023-01-27T18:03:06.831Z,44.87
2023-01-27T18:05:42.358Z,46.80
2023-01-27T18:08:13.788Z,33.23
2023-01-27T18:10:46.063Z,48.70
2023-01-27T18:13:32.320Z,32.50
2023-01-27T18:16:20.549Z,33.87
2023-01-27T18:18:50.681Z,54.33
2023-01-27T18:21:28.813Z,40.87
2023-01-27T18:24:01.731Z,16.13
2023-01-27T18:26:42.499Z,16.40
2023-01-27T18:29:40.840Z,27.57
2023-01-27T18:32:27.711Z,19.77
2023-01-27T18:35:06.599Z,14.07
2023-01-27T18:37:40.294Z,15.87
2023-01-27T18:40:30.636Z,17.97
2023-01-27T18:43:01.308Z,14.47
2023-01-27T18:45:30.893Z,15.90
2023-01-27T18:48:07.369Z,16.43
2023-01-27T18:50:47.596Z,19.53
2023-01-27T18:53:22.709Z,14.90
2023-01-27T18:55:53.778Z,15.73
2023-01-27T18:58:27.105Z,12.93
2023-01-27T19:00:59.811Z,14.93
2023-01-27T19:03:36.619Z,15.23
2023-01-27T19:06:09.343Z,16.70
2023-01-27T19:08:40.159Z,14.40
2023-01-27T19:11:14.372Z,16.63
2023-01-27T19:13:45.631Z,13.00
2023-01-27T19:16:20.210Z,16.93
2023-01-27T19:18:50.189Z,17.43
2023-01-27T19:21:26.933Z,16.43
2023-01-27T19:23:58.420Z,16.47
2023-01-27T19:26:40.263Z,15.93
2023-01-27T19:29:15.157Z,14.67
2023-01-27T19:31:45.942Z,13.40
2023-01-27T19:34:22.241Z,11.73
2023-01-27T19:36:58.317Z,30.60
2023-01-27T19:39:29.596Z,37.27
2023-01-27T19:41:58.856Z,14.57
2023-01-27T19:47:20.678Z,21.00
2023-01-27T19:49:53.572Z,23.10
2023-01-27T19:52:21.735Z,58.20
2023-01-27T19:54:50.062Z,27.93
2023-01-27T19:57:38.343Z,39.03
2023-01-27T20:00:07.821Z,33.10
2023-01-27T20:02:40.319Z,17.70
2023-01-27T20:05:14.532Z,24.43
2023-01-27T20:07:45.263Z,24.57
2023-01-27T20:10:24.154Z,38.63
2023-01-27T20:13:00.015Z,19.87
2023-01-27T20:15:35.382Z,24.37
2023-01-27T20:18:11.019Z,21.60
2023-01-27T20:20:42.211Z,25.87
2023-01-27T20:23:14.580Z,43.47
2023-01-27T20:25:45.214Z,25.20
2023-01-27T20:28:16.910Z,88.03
2023-01-27T20:30:44.941Z,72.27
2023-01-27T20:33:14.816Z,55.57
2023-01-27T20:35:42.987Z,51.77
2023-01-27T20:38:10.933Z,69.23
2023-01-27T20:40:39.152Z,29.83
2023-01-27T20:43:08.361Z,104.43
2023-01-27T20:45:38.980Z,104.47
2023-01-27T20:48:06.774Z,33.87
2023-01-27T20:50:34.424Z,46.60
2023-01-27T20:53:02.431Z,37.13
2023-01-27T20:55:31.430Z,100.23
2023-01-27T20:58:01.383Z,78.10
2023-01-27T21:00:29.242Z,83.10
2023-01-27T21:02:57.469Z,61.97
2023-01-27T21:10:03.879Z,30.13
2023-01-27T21:12:31.765Z,21.70
2023-01-27T21:15:01.959Z,54.00
2023-01-27T21:17:29.624Z,30.53
2023-01-27T21:19:57.260Z,10.20
2023-01-27T21:22:25.097Z,8.83
2023-01-27T21:24:52.686Z,10.07
2023-01-27T21:27:22.902Z,27.03
2023-01-27T21:29:50.849Z,17.97
2023-01-27T21:32:18.432Z,16.40
2023-01-27T21:34:48.406Z,8.00
2023-01-27T21:37:16.057Z,9.40
2023-01-27T21:39:45.920Z,9.43
2023-01-27T21:42:37.848Z,13.67
2023-01-27T21:45:25.464Z,7.83
2023-01-27T21:47:54.521Z,5.80
2023-01-27T21:50:22.387Z,6.13
2023-01-27T21:53:11.852Z,5.93
2023-01-27T21:55:39.719Z,6.37
2023-01-27T21:58:07.387Z,6.63
2023-01-27T22:00:36.440Z,5.50
2023-01-27T22:03:07.683Z,6.90
2023-01-27T22:05:39.441Z,6.87
2023-01-27T22:08:08.636Z,5.83
2023-01-27T22:10:36.910Z,5.67
2023-01-27T22:13:06.108Z,5.63
2023-01-27T22:15:34.000Z,4.73
2023-01-27T22:18:03.163Z,4.83
2023-01-27T22:20:32.255Z,5.70
2023-01-27T22:23:00.843Z,7.07
2023-01-27T22:25:28.745Z,6.97
2023-01-27T22:27:57.945Z,6.33
2023-01-27T22:30:26.996Z,7.50
2023-01-27T22:32:57.721Z,5.67
2023-01-27T22:35:25.882Z,6.17
2023-01-27T22:37:55.140Z,8.07
2023-01-27T22:40:23.583Z,6.70
2023-01-27T22:42:51.697Z,5.00
2023-01-27T22:45:19.334Z,6.40
2023-01-27T22:47:47.153Z,5.67
2023-01-27T22:50:15.159Z,5.83
2023-01-27T22:52:44.869Z,5.80
2023-01-27T22:55:15.653Z,8.10
2023-01-27T22:57:47.908Z,7.43
2023-01-27T23:00:19.710Z,7.60
2023-01-27T23:02:49.024Z,14.60
2023-01-27T23:05:17.148Z,8.20
2023-01-27T23:07:46.490Z,10.53
2023-01-27T23:10:14.898Z,8.40
2023-01-27T23:12:42.533Z,8.77
2023-01-27T23:15:10.798Z,6.00
2023-01-27T23:17:38.477Z,4.73
2023-01-27T23:20:07.121Z,5.27
2023-01-27T23:22:35.133Z,4.33
2023-01-27T23:25:03.215Z,4.17
2023-01-27T23:27:30.950Z,4.07
2023-01-27T23:29:59.074Z,5.13
2023-01-27T23:32:26.687Z,4.53
2023-01-27T23:34:55.609Z,6.87
2023-01-27T23:37:27.237Z,6.83
2023-01-27T23:39:55.540Z,5.90
2023-01-27T23:42:23.140Z,9.17
2023-01-27T23:44:52.237Z,5.57
2023-01-27T23:47:19.759Z,8.20
2023-01-27T23:49:47.430Z,4.37
2023-01-27T23:52:15.050Z,5.27
2023-01-27T23:54:43.161Z,4.50
2023-01-27T23:57:10.808Z,4.57
2023-01-27T23:59:38.429Z,4.63
